sensor_id;sensor_type;location;lat;lon;timestamp;temperature;humidity
7472;DHT22;3777;48.722;8.110;2024-02-15T00:02:21;12.60;99.90
7472;DHT22;3777;48.722;8.110;2024-02-15T00:04:48;12.60;99.90
7472;DHT22;3777;48.722;8.110;2024-02-15T00:07:15;12.50;99.90
7472;DHT22;3777;48.722;8.110;2024-02-15T00:09:43;12.50;99.90
7472;DHT22;3777;48.722;8.110;2024-02-15T00:12:10;12.40;99.90
7472;DHT22;3777;48.722;8.110;2024-02-15T00:14:37;12.50;99.90
7472;DHT22;3777;48.722;8.110;2024-02-15T00:17:04;12.60;99.90
7472;DHT22;3777;48.722;8.110;2024-02-15T00:19:31;12.50;99.90
7472;DHT22;3777;48.722;8.110;2024-02-15T00:21:58;12.40;99.90
7472;DHT22;3777;48.722;8.110;2024-02-15T00:24:25;12.30;99.90
7472;DHT22;3777;48.722;8.110;2024-02-15T00:26:54;12.20;99.90
7472;DHT22;3777;48.722;8.110;2024-02-15T00:29:20;12.10;99.90
7472;DHT22;3777;48.722;8.110;2024-02-15T00:31:47;12.10;99.90
7472;DHT22;3777;48.722;8.110;2024-02-15T00:34:15;12.00;99.90
7472;DHT22;3777;48.722;8.110;2024-02-15T00:36:42;11.90;99.90
7472;DHT22;3777;48.722;8.110;2024-02-15T00:39:10;11.80;99.90
7472;DHT22;3777;48.722;8.110;2024-02-15T00:41:38;11.80;99.90
7472;DHT22;3777;48.722;8.110;2024-02-15T00:44:08;11.70;99.90
7472;DHT22;3777;48.722;8.110;2024-02-15T00:46:35;11.60;99.90
7472;DHT22;3777;48.722;8.110;2024-02-15T00:49:02;11.60;99.90
7472;DHT22;3777;48.722;8.110;2024-02-15T00:51:31;11.50;99.90
7472;DHT22;3777;48.722;8.110;2024-02-15T00:53:58;11.40;99.90
7472;DHT22;3777;48.722;8.110;2024-02-15T00:56:25;11.40;99.90
7472;DHT22;3777;48.722;8.110;2024-02-15T00:58:53;11.30;99.90
7472;DHT22;3777;48.722;8.110;2024-02-15T01:01:21;11.20;99.90
7472;DHT22;3777;48.722;8.110;2024-02-15T01:03:48;11.20;99.90
7472;DHT22;3777;48.722;8.110;2024-02-15T01:06:15;11.10;99.90
7472;DHT22;3777;48.722;8.110;2024-02-15T01:08:42;11.10;99.90
7472;DHT22;3777;48.722;8.110;2024-02-15T01:11:09;11.00;99.90
7472;DHT22;3777;48.722;8.110;2024-02-15T01:13:36;10.90;99.90
7472;DHT22;3777;48.722;8.110;2024-02-15T01:16:03;10.90;99.90
7472;DHT22;3777;48.722;8.110;2024-02-15T01:18:32;10.80;99.90
7472;DHT22;3777;48.722;8.110;2024-02-15T01:20:58;10.70;99.90
7472;DHT22;3777;48.722;8.110;2024-02-15T01:23:25;10.70;99.90
7472;DHT22;3777;48.722;8.110;2024-02-15T01:25:52;10.70;99.90
7472;DHT22;3777;48.722;8.110;2024-02-15T01:28:19;10.60;99.90
7472;DHT22;3777;48.722;8.110;2024-02-15T01:30:46;10.60;99.90
7472;DHT22;3777;48.722;8.110;2024-02-15T01:33:13;10.60;99.90
7472;DHT22;3777;48.722;8.110;2024-02-15T01:35:41;10.60;99.90
7472;DHT22;3777;48.722;8.110;2024-02-15T01:38:08;10.50;99.90
7472;DHT22;3777;48.722;8.110;2024-02-15T01:40:36;10.50;99.90
7472;DHT22;3777;48.722;8.110;2024-02-15T01:43:03;10.50;99.90
7472;DHT22;3777;48.722;8.110;2024-02-15T01:45:31;10.50;99.90
7472;DHT22;3777;48.722;8.110;2024-02-15T01:47:58;10.40;99.90
7472;DHT22;3777;48.722;8.110;2024-02-15T01:50:25;10.40;99.90
7472;DHT22;3777;48.722;8.110;2024-02-15T01:52:57;10.30;99.90
7472;DHT22;3777;48.722;8.110;2024-02-15T01:55:25;10.30;99.90
7472;DHT22;3777;48.722;8.110;2024-02-15T01:57:52;10.30;99.90
7472;DHT22;3777;48.722;8.110;2024-02-15T02:00:19;10.20;99.90
7472;DHT22;3777;48.722;8.110;2024-02-15T02:02:46;10.20;99.90
7472;DHT22;3777;48.722;8.110;2024-02-15T02:05:13;10.20;99.90
7472;DHT22;3777;48.722;8.110;2024-02-15T02:07:40;10.20;99.90
7472;DHT22;3777;48.722;8.110;2024-02-15T02:10:09;10.10;99.90
7472;DHT22;3777;48.722;8.110;2024-02-15T02:12:38;10.10;99.90
7472;DHT22;3777;48.722;8.110;2024-02-15T02:15:06;10.10;99.90
7472;DHT22;3777;48.722;8.110;2024-02-15T02:17:33;10.10;99.90
7472;DHT22;3777;48.722;8.110;2024-02-15T02:20:01;10.00;99.90
7472;DHT22;3777;48.722;8.110;2024-02-15T02:22:34;10.00;99.90
7472;DHT22;3777;48.722;8.110;2024-02-15T02:25:04;9.90;99.90
7472;DHT22;3777;48.722;8.110;2024-02-15T02:27:34;9.90;99.90
7472;DHT22;3777;48.722;8.110;2024-02-15T02:30:03;9.90;99.90
7472;DHT22;3777;48.722;8.110;2024-02-15T02:32:32;9.80;99.90
7472;DHT22;3777;48.722;8.110;2024-02-15T02:35:00;9.80;99.90
7472;DHT22;3777;48.722;8.110;2024-02-15T02:37:27;9.80;99.90
7472;DHT22;3777;48.722;8.110;2024-02-15T02:39:53;9.70;99.90
7472;DHT22;3777;48.722;8.110;2024-02-15T02:42:22;9.70;99.90
7472;DHT22;3777;48.722;8.110;2024-02-15T02:44:49;9.60;99.90
7472;DHT22;3777;48.722;8.110;2024-02-15T02:47:16;9.60;99.90
7472;DHT22;3777;48.722;8.110;2024-02-15T02:49:43;9.60;99.90
7472;DHT22;3777;48.722;8.110;2024-02-15T02:52:10;9.60;99.90
7472;DHT22;3777;48.722;8.110;2024-02-15T02:54:37;9.60;99.90
7472;DHT22;3777;48.722;8.110;2024-02-15T02:57:04;9.60;99.90
7472;DHT22;3777;48.722;8.110;2024-02-15T02:59:33;9.50;99.90
7472;DHT22;3777;48.722;8.110;2024-02-15T03:02:00;9.50;99.90
7472;DHT22;3777;48.722;8.110;2024-02-15T03:04:29;9.50;99.90
7472;DHT22;3777;48.722;8.110;2024-02-15T03:06:55;9.50;99.90
7472;DHT22;3777;48.722;8.110;2024-02-15T03:09:23;9.50;99.90
7472;DHT22;3777;48.722;8.110;2024-02-15T03:11:55;9.50;99.90
7472;DHT22;3777;48.722;8.110;2024-02-15T03:14:22;9.50;99.90
7472;DHT22;3777;48.722;8.110;2024-02-15T03:16:50;9.50;99.90
7472;DHT22;3777;48.722;8.110;2024-02-15T03:19:17;9.50;99.90
7472;DHT22;3777;48.722;8.110;2024-02-15T03:21:43;9.50;99.90
7472;DHT22;3777;48.722;8.110;2024-02-15T03:24:12;9.50;99.90
7472;DHT22;3777;48.722;8.110;2024-02-15T03:26:39;9.50;99.90
7472;DHT22;3777;48.722;8.110;2024-02-15T03:29:08;9.40;99.90
7472;DHT22;3777;48.722;8.110;2024-02-15T03:31:35;9.40;99.90
7472;DHT22;3777;48.722;8.110;2024-02-15T03:34:04;9.40;99.90
7472;DHT22;3777;48.722;8.110;2024-02-15T03:36:31;9.30;99.90
7472;DHT22;3777;48.722;8.110;2024-02-15T03:38:58;9.30;99.90
7472;DHT22;3777;48.722;8.110;2024-02-15T03:41:27;9.30;99.90
7472;DHT22;3777;48.722;8.110;2024-02-15T03:43:58;9.20;99.90
7472;DHT22;3777;48.722;8.110;2024-02-15T03:46:26;9.40;99.90
7472;DHT22;3777;48.722;8.110;2024-02-15T03:48:53;9.40;99.90
7472;DHT22;3777;48.722;8.110;2024-02-15T03:51:22;9.40;99.90
7472;DHT22;3777;48.722;8.110;2024-02-15T03:53:50;9.50;99.90
7472;DHT22;3777;48.722;8.110;2024-02-15T03:56:17;9.50;99.90
7472;DHT22;3777;48.722;8.110;2024-02-15T03:58:45;9.60;99.90
7472;DHT22;3777;48.722;8.110;2024-02-15T04:01:11;9.60;99.90
7472;DHT22;3777;48.722;8.110;2024-02-15T04:03:40;9.60;99.90
7472;DHT22;3777;48.722;8.110;2024-02-15T04:06:07;9.60;99.90
7472;DHT22;3777;48.722;8.110;2024-02-15T04:08:36;9.70;99.90
7472;DHT22;3777;48.722;8.110;2024-02-15T04:11:04;9.70;99.90
7472;DHT22;3777;48.722;8.110;2024-02-15T04:13:33;9.80;99.90
7472;DHT22;3777;48.722;8.110;2024-02-15T04:15:59;9.80;99.90
7472;DHT22;3777;48.722;8.110;2024-02-15T04:18:26;9.80;99.90
7472;DHT22;3777;48.722;8.110;2024-02-15T04:20:57;9.90;99.90
7472;DHT22;3777;48.722;8.110;2024-02-15T04:23:24;9.90;99.90
7472;DHT22;3777;48.722;8.110;2024-02-15T04:25:52;10.10;99.90
7472;DHT22;3777;48.722;8.110;2024-02-15T04:28:19;10.10;99.90
7472;DHT22;3777;48.722;8.110;2024-02-15T04:30:46;10.10;99.90
7472;DHT22;3777;48.722;8.110;2024-02-15T04:33:14;10.20;99.90
7472;DHT22;3777;48.722;8.110;2024-02-15T04:35:42;10.20;99.90
7472;DHT22;3777;48.722;8.110;2024-02-15T04:38:08;10.20;99.90
7472;DHT22;3777;48.722;8.110;2024-02-15T04:40:35;10.20;99.90
7472;DHT22;3777;48.722;8.110;2024-02-15T04:43:05;10.10;99.90
7472;DHT22;3777;48.722;8.110;2024-02-15T04:45:32;10.10;99.90
7472;DHT22;3777;48.722;8.110;2024-02-15T04:47:59;10.20;99.90
7472;DHT22;3777;48.722;8.110;2024-02-15T04:50:27;10.20;99.90
7472;DHT22;3777;48.722;8.110;2024-02-15T04:52:54;10.20;99.90
7472;DHT22;3777;48.722;8.110;2024-02-15T04:55:22;10.30;99.90
7472;DHT22;3777;48.722;8.110;2024-02-15T04:57:48;10.30;99.90
7472;DHT22;3777;48.722;8.110;2024-02-15T05:00:22;10.30;99.90
7472;DHT22;3777;48.722;8.110;2024-02-15T05:02:51;10.30;99.90
7472;DHT22;3777;48.722;8.110;2024-02-15T05:05:18;10.30;99.90
7472;DHT22;3777;48.722;8.110;2024-02-15T05:07:45;10.30;99.90
7472;DHT22;3777;48.722;8.110;2024-02-15T05:10:14;10.30;99.90
7472;DHT22;3777;48.722;8.110;2024-02-15T05:12:41;10.40;99.90
7472;DHT22;3777;48.722;8.110;2024-02-15T05:15:09;10.30;99.90
7472;DHT22;3777;48.722;8.110;2024-02-15T05:17:38;10.30;99.90
7472;DHT22;3777;48.722;8.110;2024-02-15T05:20:08;10.30;99.90
7472;DHT22;3777;48.722;8.110;2024-02-15T05:22:36;10.30;99.90
7472;DHT22;3777;48.722;8.110;2024-02-15T05:25:04;10.30;99.90
7472;DHT22;3777;48.722;8.110;2024-02-15T05:27:31;10.40;99.90
7472;DHT22;3777;48.722;8.110;2024-02-15T05:29:58;10.30;99.90
7472;DHT22;3777;48.722;8.110;2024-02-15T05:32:25;10.30;99.90
7472;DHT22;3777;48.722;8.110;2024-02-15T05:34:54;10.30;99.90
7472;DHT22;3777;48.722;8.110;2024-02-15T05:37:21;10.30;99.90
7472;DHT22;3777;48.722;8.110;2024-02-15T05:39:48;10.30;99.90
7472;DHT22;3777;48.722;8.110;2024-02-15T05:42:20;10.30;99.90
7472;DHT22;3777;48.722;8.110;2024-02-15T05:44:48;10.30;99.90
7472;DHT22;3777;48.722;8.110;2024-02-15T05:47:15;10.30;99.90
7472;DHT22;3777;48.722;8.110;2024-02-15T05:49:42;10.20;99.90
7472;DHT22;3777;48.722;8.110;2024-02-15T05:52:11;10.20;99.90
7472;DHT22;3777;48.722;8.110;2024-02-15T05:54:38;10.20;99.90
7472;DHT22;3777;48.722;8.110;2024-02-15T05:57:07;10.20;99.90
7472;DHT22;3777;48.722;8.110;2024-02-15T05:59:34;10.10;99.90
7472;DHT22;3777;48.722;8.110;2024-02-15T06:02:01;10.10;99.90
7472;DHT22;3777;48.722;8.110;2024-02-15T06:04:28;10.00;99.90
7472;DHT22;3777;48.722;8.110;2024-02-15T06:06:55;10.00;99.90
7472;DHT22;3777;48.722;8.110;2024-02-15T06:09:27;10.00;99.90
7472;DHT22;3777;48.722;8.110;2024-02-15T06:11:55;9.90;99.90
7472;DHT22;3777;48.722;8.110;2024-02-15T06:14:23;9.90;99.90
7472;DHT22;3777;48.722;8.110;2024-02-15T06:16:50;9.90;99.90
7472;DHT22;3777;48.722;8.110;2024-02-15T06:19:18;9.80;99.90
7472;DHT22;3777;48.722;8.110;2024-02-15T06:21:44;9.80;99.90
7472;DHT22;3777;48.722;8.110;2024-02-15T06:24:12;9.70;99.90
7472;DHT22;3777;48.722;8.110;2024-02-15T06:26:41;9.70;99.90
7472;DHT22;3777;48.722;8.110;2024-02-15T06:29:08;9.60;99.90
7472;DHT22;3777;48.722;8.110;2024-02-15T06:31:52;9.60;99.90
7472;DHT22;3777;48.722;8.110;2024-02-15T06:34:36;9.60;99.90
7472;DHT22;3777;48.722;8.110;2024-02-15T06:37:36;9.60;99.90
7472;DHT22;3777;48.722;8.110;2024-02-15T06:40:20;9.50;99.90
7472;DHT22;3777;48.722;8.110;2024-02-15T06:42:49;9.50;99.90
7472;DHT22;3777;48.722;8.110;2024-02-15T06:45:16;9.50;99.90
7472;DHT22;3777;48.722;8.110;2024-02-15T06:47:45;9.40;99.90
7472;DHT22;3777;48.722;8.110;2024-02-15T06:50:12;9.40;99.90
7472;DHT22;3777;48.722;8.110;2024-02-15T06:52:40;9.40;99.90
7472;DHT22;3777;48.722;8.110;2024-02-15T06:55:07;9.50;99.90
7472;DHT22;3777;48.722;8.110;2024-02-15T06:57:37;9.40;99.90
7472;DHT22;3777;48.722;8.110;2024-02-15T07:00:09;9.50;99.90
7472;DHT22;3777;48.722;8.110;2024-02-15T07:02:40;9.50;99.90
7472;DHT22;3777;48.722;8.110;2024-02-15T07:05:09;9.50;99.90
7472;DHT22;3777;48.722;8.110;2024-02-15T07:07:36;9.50;99.90
7472;DHT22;3777;48.722;8.110;2024-02-15T07:10:05;9.60;99.90
7472;DHT22;3777;48.722;8.110;2024-02-15T07:12:32;9.60;99.90
7472;DHT22;3777;48.722;8.110;2024-02-15T07:14:58;9.60;99.90
7472;DHT22;3777;48.722;8.110;2024-02-15T07:17:28;9.60;99.90
7472;DHT22;3777;48.722;8.110;2024-02-15T07:19:55;9.60;99.90
7472;DHT22;3777;48.722;8.110;2024-02-15T07:22:21;9.70;99.90
7472;DHT22;3777;48.722;8.110;2024-02-15T07:24:48;9.70;99.90
7472;DHT22;3777;48.722;8.110;2024-02-15T07:27:15;9.70;99.90
7472;DHT22;3777;48.722;8.110;2024-02-15T07:29:42;9.70;99.90
7472;DHT22;3777;48.722;8.110;2024-02-15T07:32:09;9.80;99.90
7472;DHT22;3777;48.722;8.110;2024-02-15T07:34:38;9.80;99.90
7472;DHT22;3777;48.722;8.110;2024-02-15T07:37:07;9.90;99.90
7472;DHT22;3777;48.722;8.110;2024-02-15T07:39:34;9.90;99.90
7472;DHT22;3777;48.722;8.110;2024-02-15T07:42:02;9.90;99.90
7472;DHT22;3777;48.722;8.110;2024-02-15T07:44:30;10.00;99.90
7472;DHT22;3777;48.722;8.110;2024-02-15T07:46:58;10.10;99.90
7472;DHT22;3777;48.722;8.110;2024-02-15T07:49:25;10.10;99.90
7472;DHT22;3777;48.722;8.110;2024-02-15T07:51:54;10.20;99.90
7472;DHT22;3777;48.722;8.110;2024-02-15T07:54:22;10.40;99.90
7472;DHT22;3777;48.722;8.110;2024-02-15T07:56:49;10.50;99.90
7472;DHT22;3777;48.722;8.110;2024-02-15T07:59:19;10.70;99.90
7472;DHT22;3777;48.722;8.110;2024-02-15T08:01:45;10.90;99.90
7472;DHT22;3777;48.722;8.110;2024-02-15T08:04:15;11.20;99.90
7472;DHT22;3777;48.722;8.110;2024-02-15T08:06:43;11.30;99.90
7472;DHT22;3777;48.722;8.110;2024-02-15T08:09:11;11.40;99.90
7472;DHT22;3777;48.722;8.110;2024-02-15T08:11:39;11.50;99.90
7472;DHT22;3777;48.722;8.110;2024-02-15T08:14:06;11.60;99.90
7472;DHT22;3777;48.722;8.110;2024-02-15T08:16:37;11.70;99.90
7472;DHT22;3777;48.722;8.110;2024-02-15T08:19:05;11.80;99.90
7472;DHT22;3777;48.722;8.110;2024-02-15T08:21:33;12.00;99.90
7472;DHT22;3777;48.722;8.110;2024-02-15T08:24:02;12.00;99.90
7472;DHT22;3777;48.722;8.110;2024-02-15T08:26:32;12.10;99.90
7472;DHT22;3777;48.722;8.110;2024-02-15T08:29:01;12.30;99.90
7472;DHT22;3777;48.722;8.110;2024-02-15T08:31:28;12.40;99.90
7472;DHT22;3777;48.722;8.110;2024-02-15T08:33:56;12.60;99.90
7472;DHT22;3777;48.722;8.110;2024-02-15T08:36:23;12.80;99.90
7472;DHT22;3777;48.722;8.110;2024-02-15T08:38:50;12.90;99.90
7472;DHT22;3777;48.722;8.110;2024-02-15T08:41:19;13.00;99.90
7472;DHT22;3777;48.722;8.110;2024-02-15T08:43:49;13.20;99.90
7472;DHT22;3777;48.722;8.110;2024-02-15T08:46:16;13.30;99.90
7472;DHT22;3777;48.722;8.110;2024-02-15T08:48:43;13.60;99.90
7472;DHT22;3777;48.722;8.110;2024-02-15T08:51:10;13.80;99.90
7472;DHT22;3777;48.722;8.110;2024-02-15T08:53:37;14.00;99.90
7472;DHT22;3777;48.722;8.110;2024-02-15T08:56:04;14.20;99.90
7472;DHT22;3777;48.722;8.110;2024-02-15T08:58:31;14.30;99.90
7472;DHT22;3777;48.722;8.110;2024-02-15T09:01:00;14.40;99.90
7472;DHT22;3777;48.722;8.110;2024-02-15T09:03:28;14.40;99.90
7472;DHT22;3777;48.722;8.110;2024-02-15T09:05:55;14.40;99.90
7472;DHT22;3777;48.722;8.110;2024-02-15T09:08:23;14.50;99.90
7472;DHT22;3777;48.722;8.110;2024-02-15T09:10:50;14.50;99.90
7472;DHT22;3777;48.722;8.110;2024-02-15T09:13:18;14.70;99.90
7472;DHT22;3777;48.722;8.110;2024-02-15T09:15:44;14.70;99.90
7472;DHT22;3777;48.722;8.110;2024-02-15T09:18:14;14.80;99.90
7472;DHT22;3777;48.722;8.110;2024-02-15T09:20:43;14.90;99.90
7472;DHT22;3777;48.722;8.110;2024-02-15T09:23:11;15.10;99.90
7472;DHT22;3777;48.722;8.110;2024-02-15T09:25:40;15.30;99.90
7472;DHT22;3777;48.722;8.110;2024-02-15T09:28:08;15.30;99.90
7472;DHT22;3777;48.722;8.110;2024-02-15T09:30:35;15.40;99.90
7472;DHT22;3777;48.722;8.110;2024-02-15T09:33:04;15.40;99.90
7472;DHT22;3777;48.722;8.110;2024-02-15T09:35:33;15.40;99.90
7472;DHT22;3777;48.722;8.110;2024-02-15T09:37:59;15.40;99.90
7472;DHT22;3777;48.722;8.110;2024-02-15T09:40:26;15.50;99.90
7472;DHT22;3777;48.722;8.110;2024-02-15T09:42:55;15.50;99.90
7472;DHT22;3777;48.722;8.110;2024-02-15T09:45:22;15.60;99.90
7472;DHT22;3777;48.722;8.110;2024-02-15T09:47:50;15.60;99.90
7472;DHT22;3777;48.722;8.110;2024-02-15T09:50:18;15.60;99.90
7472;DHT22;3777;48.722;8.110;2024-02-15T09:52:49;15.70;99.90
7472;DHT22;3777;48.722;8.110;2024-02-15T09:55:17;15.60;99.90
7472;DHT22;3777;48.722;8.110;2024-02-15T09:57:49;15.60;99.90
7472;DHT22;3777;48.722;8.110;2024-02-15T10:00:17;15.70;99.90
7472;DHT22;3777;48.722;8.110;2024-02-15T10:02:46;15.80;99.90
7472;DHT22;3777;48.722;8.110;2024-02-15T10:05:13;15.90;99.90
7472;DHT22;3777;48.722;8.110;2024-02-15T10:07:47;16.10;99.90
7472;DHT22;3777;48.722;8.110;2024-02-15T10:10:18;16.20;99.90
7472;DHT22;3777;48.722;8.110;2024-02-15T10:12:45;16.30;99.90
7472;DHT22;3777;48.722;8.110;2024-02-15T10:15:28;16.60;99.90
7472;DHT22;3777;48.722;8.110;2024-02-15T10:17:56;16.90;99.90
7472;DHT22;3777;48.722;8.110;2024-02-15T10:20:24;17.10;99.90
7472;DHT22;3777;48.722;8.110;2024-02-15T10:22:53;17.30;99.90
7472;DHT22;3777;48.722;8.110;2024-02-15T10:25:35;17.50;99.90
7472;DHT22;3777;48.722;8.110;2024-02-15T10:28:02;17.50;99.90
7472;DHT22;3777;48.722;8.110;2024-02-15T10:30:33;17.10;99.90
7472;DHT22;3777;48.722;8.110;2024-02-15T10:33:01;17.30;99.90
7472;DHT22;3777;48.722;8.110;2024-02-15T10:35:28;17.50;99.90
7472;DHT22;3777;48.722;8.110;2024-02-15T10:38:06;17.40;99.90
7472;DHT22;3777;48.722;8.110;2024-02-15T10:40:34;17.50;99.90
7472;DHT22;3777;48.722;8.110;2024-02-15T10:43:03;17.50;99.90
7472;DHT22;3777;48.722;8.110;2024-02-15T10:45:31;17.70;99.90
7472;DHT22;3777;48.722;8.110;2024-02-15T10:47:58;17.70;99.90
7472;DHT22;3777;48.722;8.110;2024-02-15T10:50:25;17.60;99.90
7472;DHT22;3777;48.722;8.110;2024-02-15T10:52:54;17.80;99.90
7472;DHT22;3777;48.722;8.110;2024-02-15T10:55:35;17.70;99.90
7472;DHT22;3777;48.722;8.110;2024-02-15T10:58:06;17.80;99.90
7472;DHT22;3777;48.722;8.110;2024-02-15T11:00:33;17.90;99.90
7472;DHT22;3777;48.722;8.110;2024-02-15T11:03:04;18.00;99.90
7472;DHT22;3777;48.722;8.110;2024-02-15T11:05:32;18.20;99.90
7472;DHT22;3777;48.722;8.110;2024-02-15T11:08:03;18.20;99.90
7472;DHT22;3777;48.722;8.110;2024-02-15T11:10:32;18.40;99.90
7472;DHT22;3777;48.722;8.110;2024-02-15T11:13:00;18.50;99.90
7472;DHT22;3777;48.722;8.110;2024-02-15T11:15:41;18.70;99.90
7472;DHT22;3777;48.722;8.110;2024-02-15T11:18:11;18.90;99.90
7472;DHT22;3777;48.722;8.110;2024-02-15T11:20:48;19.00;99.90
7472;DHT22;3777;48.722;8.110;2024-02-15T11:23:27;19.10;99.90
7472;DHT22;3777;48.722;8.110;2024-02-15T11:25:55;19.20;99.90
7472;DHT22;3777;48.722;8.110;2024-02-15T11:28:40;19.20;99.90
7472;DHT22;3777;48.722;8.110;2024-02-15T11:34:43;19.30;99.90
7472;DHT22;3777;48.722;8.110;2024-02-15T11:37:50;19.40;99.90
7472;DHT22;3777;48.722;8.110;2024-02-15T11:40:22;19.50;99.90
7472;DHT22;3777;48.722;8.110;2024-02-15T11:42:51;19.60;99.90
7472;DHT22;3777;48.722;8.110;2024-02-15T11:45:20;19.70;99.90
7472;DHT22;3777;48.722;8.110;2024-02-15T11:47:48;19.60;99.90
7472;DHT22;3777;48.722;8.110;2024-02-15T11:50:16;19.60;99.90
7472;DHT22;3777;48.722;8.110;2024-02-15T11:52:44;19.40;99.90
7472;DHT22;3777;48.722;8.110;2024-02-15T11:55:12;19.30;99.90
7472;DHT22;3777;48.722;8.110;2024-02-15T11:57:40;19.20;99.90
7472;DHT22;3777;48.722;8.110;2024-02-15T12:00:24;19.10;99.90
7472;DHT22;3777;48.722;8.110;2024-02-15T12:03:09;19.10;99.90
7472;DHT22;3777;48.722;8.110;2024-02-15T12:05:54;19.00;99.90
7472;DHT22;3777;48.722;8.110;2024-02-15T12:08:38;18.90;99.90
7472;DHT22;3777;48.722;8.110;2024-02-15T12:11:23;18.90;99.90
7472;DHT22;3777;48.722;8.110;2024-02-15T12:14:12;18.70;99.90
7472;DHT22;3777;48.722;8.110;2024-02-15T12:17:02;18.60;99.90
7472;DHT22;3777;48.722;8.110;2024-02-15T12:19:48;18.60;99.90
7472;DHT22;3777;48.722;8.110;2024-02-15T12:22:18;18.50;99.90
7472;DHT22;3777;48.722;8.110;2024-02-15T12:24:53;18.50;99.90
7472;DHT22;3777;48.722;8.110;2024-02-15T12:27:20;18.30;99.90
7472;DHT22;3777;48.722;8.110;2024-02-15T12:29:53;18.40;99.90
7472;DHT22;3777;48.722;8.110;2024-02-15T12:32:22;18.50;99.90
7472;DHT22;3777;48.722;8.110;2024-02-15T12:34:49;18.60;99.90
7472;DHT22;3777;48.722;8.110;2024-02-15T12:37:18;18.60;99.90
7472;DHT22;3777;48.722;8.110;2024-02-15T12:39:46;18.70;99.90
7472;DHT22;3777;48.722;8.110;2024-02-15T12:42:13;18.70;99.90
7472;DHT22;3777;48.722;8.110;2024-02-15T12:44:45;18.70;99.90
7472;DHT22;3777;48.722;8.110;2024-02-15T12:47:22;18.60;99.90
7472;DHT22;3777;48.722;8.110;2024-02-15T12:49:50;18.60;99.90
7472;DHT22;3777;48.722;8.110;2024-02-15T12:52:38;18.60;99.90
7472;DHT22;3777;48.722;8.110;2024-02-15T12:55:11;18.60;99.90
7472;DHT22;3777;48.722;8.110;2024-02-15T12:57:38;18.50;99.90
7472;DHT22;3777;48.722;8.110;2024-02-15T13:00:08;18.50;99.90
7472;DHT22;3777;48.722;8.110;2024-02-15T13:02:41;18.60;99.90
7472;DHT22;3777;48.722;8.110;2024-02-15T13:05:08;18.60;99.90
7472;DHT22;3777;48.722;8.110;2024-02-15T13:07:36;18.60;99.90
7472;DHT22;3777;48.722;8.110;2024-02-15T13:10:04;18.60;99.90
7472;DHT22;3777;48.722;8.110;2024-02-15T13:12:33;18.70;99.90
7472;DHT22;3777;48.722;8.110;2024-02-15T13:15:02;18.60;99.90
7472;DHT22;3777;48.722;8.110;2024-02-15T13:17:30;18.70;99.90
7472;DHT22;3777;48.722;8.110;2024-02-15T13:19:58;18.70;99.90
7472;DHT22;3777;48.722;8.110;2024-02-15T13:22:30;18.60;99.90
7472;DHT22;3777;48.722;8.110;2024-02-15T13:24:57;18.70;99.90
7472;DHT22;3777;48.722;8.110;2024-02-15T13:27:24;18.70;99.90
7472;DHT22;3777;48.722;8.110;2024-02-15T13:29:51;18.70;99.90
7472;DHT22;3777;48.722;8.110;2024-02-15T13:32:19;18.80;99.90
7472;DHT22;3777;48.722;8.110;2024-02-15T13:34:47;18.70;99.90
7472;DHT22;3777;48.722;8.110;2024-02-15T13:37:19;18.70;99.90
7472;DHT22;3777;48.722;8.110;2024-02-15T13:39:47;18.70;99.90
7472;DHT22;3777;48.722;8.110;2024-02-15T13:42:14;18.60;99.90
7472;DHT22;3777;48.722;8.110;2024-02-15T13:44:42;18.60;99.90
7472;DHT22;3777;48.722;8.110;2024-02-15T13:47:09;18.50;99.90
7472;DHT22;3777;48.722;8.110;2024-02-15T13:49:37;18.50;99.90
7472;DHT22;3777;48.722;8.110;2024-02-15T13:52:05;18.50;99.90
7472;DHT22;3777;48.722;8.110;2024-02-15T13:54:33;18.40;99.90
7472;DHT22;3777;48.722;8.110;2024-02-15T13:57:00;18.40;99.90
7472;DHT22;3777;48.722;8.110;2024-02-15T13:59:28;18.40;99.90
7472;DHT22;3777;48.722;8.110;2024-02-15T14:01:55;18.40;99.90
7472;DHT22;3777;48.722;8.110;2024-02-15T14:04:22;18.40;99.90
7472;DHT22;3777;48.722;8.110;2024-02-15T14:06:49;18.40;99.90
7472;DHT22;3777;48.722;8.110;2024-02-15T14:09:16;18.30;99.90
7472;DHT22;3777;48.722;8.110;2024-02-15T14:11:44;18.30;99.90
7472;DHT22;3777;48.722;8.110;2024-02-15T14:14:11;18.30;99.90
7472;DHT22;3777;48.722;8.110;2024-02-15T14:16:38;18.30;99.90
7472;DHT22;3777;48.722;8.110;2024-02-15T14:19:06;18.30;99.90
7472;DHT22;3777;48.722;8.110;2024-02-15T14:21:34;18.30;99.90
7472;DHT22;3777;48.722;8.110;2024-02-15T14:24:06;18.30;99.90
7472;DHT22;3777;48.722;8.110;2024-02-15T14:26:35;18.30;99.90
7472;DHT22;3777;48.722;8.110;2024-02-15T14:29:03;18.30;99.90
7472;DHT22;3777;48.722;8.110;2024-02-15T14:31:31;18.30;99.90
7472;DHT22;3777;48.722;8.110;2024-02-15T14:34:15;18.30;99.90
7472;DHT22;3777;48.722;8.110;2024-02-15T14:36:46;18.30;99.90
7472;DHT22;3777;48.722;8.110;2024-02-15T14:39:12;18.20;99.90
7472;DHT22;3777;48.722;8.110;2024-02-15T14:41:40;18.20;99.90
7472;DHT22;3777;48.722;8.110;2024-02-15T14:44:10;18.20;99.90
7472;DHT22;3777;48.722;8.110;2024-02-15T14:46:38;18.20;99.90
7472;DHT22;3777;48.722;8.110;2024-02-15T14:49:06;18.20;99.90
7472;DHT22;3777;48.722;8.110;2024-02-15T14:51:33;18.20;99.90
7472;DHT22;3777;48.722;8.110;2024-02-15T14:54:02;18.20;99.90
7472;DHT22;3777;48.722;8.110;2024-02-15T14:56:29;18.10;99.90
7472;DHT22;3777;48.722;8.110;2024-02-15T14:58:57;18.00;99.90
7472;DHT22;3777;48.722;8.110;2024-02-15T15:01:27;18.00;99.90
7472;DHT22;3777;48.722;8.110;2024-02-15T15:03:55;17.90;99.90
7472;DHT22;3777;48.722;8.110;2024-02-15T15:06:24;17.90;99.90
7472;DHT22;3777;48.722;8.110;2024-02-15T15:09:08;17.80;99.90
7472;DHT22;3777;48.722;8.110;2024-02-15T15:11:52;17.70;99.90
7472;DHT22;3777;48.722;8.110;2024-02-15T15:14:37;17.60;99.90
7472;DHT22;3777;48.722;8.110;2024-02-15T15:17:06;17.50;99.90
7472;DHT22;3777;48.722;8.110;2024-02-15T15:19:33;17.50;99.90
7472;DHT22;3777;48.722;8.110;2024-02-15T15:22:00;17.40;99.90
7472;DHT22;3777;48.722;8.110;2024-02-15T15:24:30;17.30;99.90
7472;DHT22;3777;48.722;8.110;2024-02-15T15:26:58;17.30;99.90
7472;DHT22;3777;48.722;8.110;2024-02-15T15:29:25;17.20;99.90
7472;DHT22;3777;48.722;8.110;2024-02-15T15:31:52;17.20;99.90
7472;DHT22;3777;48.722;8.110;2024-02-15T15:34:20;17.10;99.90
7472;DHT22;3777;48.722;8.110;2024-02-15T15:36:47;17.10;99.90
7472;DHT22;3777;48.722;8.110;2024-02-15T15:39:15;17.10;99.90
7472;DHT22;3777;48.722;8.110;2024-02-15T15:41:43;17.10;99.90
7472;DHT22;3777;48.722;8.110;2024-02-15T15:44:10;17.00;99.90
7472;DHT22;3777;48.722;8.110;2024-02-15T15:46:37;17.00;99.90
7472;DHT22;3777;48.722;8.110;2024-02-15T15:49:05;16.90;99.90
7472;DHT22;3777;48.722;8.110;2024-02-15T15:51:33;16.90;99.90
7472;DHT22;3777;48.722;8.110;2024-02-15T15:54:00;16.90;99.90
7472;DHT22;3777;48.722;8.110;2024-02-15T15:56:27;16.80;99.90
7472;DHT22;3777;48.722;8.110;2024-02-15T15:58:54;16.70;99.90
7472;DHT22;3777;48.722;8.110;2024-02-15T16:01:23;16.60;99.90
7472;DHT22;3777;48.722;8.110;2024-02-15T16:03:50;16.60;99.90
7472;DHT22;3777;48.722;8.110;2024-02-15T16:06:17;16.60;99.90
7472;DHT22;3777;48.722;8.110;2024-02-15T16:08:46;16.50;99.90
7472;DHT22;3777;48.722;8.110;2024-02-15T16:11:14;16.40;99.90
7472;DHT22;3777;48.722;8.110;2024-02-15T16:13:42;16.40;99.90
7472;DHT22;3777;48.722;8.110;2024-02-15T16:16:11;16.40;99.90
7472;DHT22;3777;48.722;8.110;2024-02-15T16:18:39;16.40;99.90
7472;DHT22;3777;48.722;8.110;2024-02-15T16:21:07;16.30;99.90